In Rescue
 
Open Full Screen Window  High Contrast Mode
January 29, 2020 4:41 AM EST
Weather Information
Wind Direction
  ---
Wind Speed
  00 kt (0 mph)
Wind Gust
  00 kt (0 mph)
Altimeter
30.09 in
Visibility
10 SM
Temperature
-02° C
28° F
Dewpoint
-04° C
25° F
Humidity
86%
1hr Rain Fall
00.00 in.
24hr Rain Fall
00.00 in.
Sky Condition
Overcast @ 2,700 ft
Scattered @ 1,300 ft
MVFR

METAR KPOV 290941Z AUTO 00000KT 10SM SCT013 OVC027 M02/M04 A3009 RMK AO2 T10221044 PWINO

FAA Disclaimer: The data displayed is for advisory purposes only and is not to be used for flight planning or operations.